Time;durP1;ratioP1;P1;durP2;ratioP2;P2;SDS_P1;SDS_P2;PMS_P1;PMS_P2;Temp;Humidity;BMP_temperature;BMP_pressure;BME280_temperature;BME280_humidity;BME280_pressure;Samples;Min_cycle;Max_cycle;Signal;HPM_P1;HPM_P2
2022/12/14 00:00:44;;;;;;;30.90;14.43;;;;;;;-3.05;100.00;100459.53;5051310;28;20025;-66
2022/12/14 00:03:10;;;;;;;29.55;12.50;;;;;;;-3.03;100.00;100458.75;5064900;28;20101;-65
2022/12/14 00:05:35;;;;;;;26.33;12.70;;;;;;;-3.02;100.00;100461.41;5066115;28;20028;-66
2022/12/14 00:08:01;;;;;;;24.42;11.95;;;;;;;-3.03;100.00;100458.75;5057862;28;20494;-65
2022/12/14 00:10:26;;;;;;;25.50;12.57;;;;;;;-3.03;100.00;100456.19;5048596;28;20025;-66
2022/12/14 00:12:52;;;;;;;28.50;12.20;;;;;;;-3.06;100.00;100457.75;5054088;28;20028;-64
2022/12/14 00:15:17;;;;;;;24.38;12.50;;;;;;;-3.05;100.00;100448.34;5046231;28;20025;-66
2022/12/14 00:17:42;;;;;;;26.08;11.98;;;;;;;-3.06;100.00;100450.03;5048795;28;20033;-65
2022/12/14 00:20:08;;;;;;;25.90;11.18;;;;;;;-3.03;100.00;100444.19;5042526;28;20447;-65
2022/12/14 00:22:33;;;;;;;25.42;12.43;;;;;;;-3.05;100.00;100436.38;5045110;28;20455;-66
2022/12/14 00:24:59;;;;;;;24.23;13.07;;;;;;;-3.03;100.00;100433.00;5053451;28;20024;-66
2022/12/14 00:27:24;;;;;;;28.92;13.35;;;;;;;-3.01;100.00;100426.25;5051735;28;22004;-64
2022/12/14 00:29:50;;;;;;;30.65;12.13;;;;;;;-3.02;100.00;100420.22;5045766;28;20112;-65
2022/12/14 00:32:15;;;;;;;25.10;12.18;;;;;;;-3.01;100.00;100418.53;5040492;28;20028;-66
2022/12/14 00:34:40;;;;;;;26.58;12.60;;;;;;;-3.02;100.00;100416.78;5046463;28;20025;-67
2022/12/14 00:37:06;;;;;;;22.27;11.98;;;;;;;-3.06;100.00;100414.00;5041719;28;20037;-66
2022/12/14 00:39:31;;;;;;;25.77;12.85;;;;;;;-3.10;100.00;100412.00;5050545;28;20025;-65
2022/12/14 00:41:56;;;;;;;28.02;12.45;;;;;;;-3.10;100.00;100414.59;5049653;28;20489;-65
2022/12/14 00:44:22;;;;;;;25.35;12.32;;;;;;;-3.13;100.00;100406.69;5049591;28;20292;-65
2022/12/14 00:46:47;;;;;;;26.60;11.73;;;;;;;-3.15;100.00;100404.78;5050964;28;20025;-65
2022/12/14 00:49:13;;;;;;;23.10;10.13;;;;;;;-3.15;100.00;100397.06;5042521;28;20028;-66
2022/12/14 00:51:38;;;;;;;27.15;11.60;;;;;;;-3.16;100.00;100396.19;5039961;28;20095;-65
2022/12/14 00:54:04;;;;;;;25.35;11.30;;;;;;;-3.14;100.00;100397.16;5044515;28;20112;-64
2022/12/14 00:56:29;;;;;;;26.33;12.30;;;;;;;-3.16;100.00;100400.44;5053349;28;20171;-66
2022/12/14 00:58:54;;;;;;;24.25;11.00;;;;;;;-3.15;100.00;100395.38;5046411;28;20045;-65
2022/12/14 01:01:20;;;;;;;25.40;11.80;;;;;;;-3.16;100.00;100387.56;5057068;28;20385;-67
2022/12/14 01:03:46;;;;;;;25.58;12.30;;;;;;;-3.16;100.00;100380.75;5051489;28;20032;-65
2022/12/14 01:06:20;;;;;;;24.15;10.35;;;;;;;-3.16;100.00;100385.91;5049937;28;20029;-67
2022/12/14 01:08:46;;;;;;;;;;;;;;;-3.13;100.00;100388.66;5053059;28;20026;-65
2022/12/14 01:11:12;;;;;;;23.60;10.50;;;;;;;-3.14;100.00;100383.41;5049102;28;19912;-65
2022/12/14 01:13:38;;;;;;;22.15;9.57;;;;;;;-3.12;100.00;100380.16;5051385;28;20039;-66
2022/12/14 01:16:07;;;;;;;22.08;10.98;;;;;;;-3.11;100.00;100375.88;5046246;28;20044;-66
2022/12/14 01:18:34;;;;;;;24.98;10.23;;;;;;;-3.16;100.00;100378.19;5046699;28;20473;-65
2022/12/14 01:21:26;;;;;;;23.80;10.77;;;;;;;-3.19;100.00;100372.81;5038928;28;20021;-65
2022/12/14 01:23:54;;;;;;;19.52;10.32;;;;;;;-3.24;100.00;100374.22;5044031;28;20044;-65
2022/12/14 01:26:20;;;;;;;20.95;9.70;;;;;;;-3.25;100.00;100368.19;5051874;28;20103;-65
2022/12/14 01:28:51;;;;;;;26.77;11.02;;;;;;;-3.22;100.00;100377.78;5047936;28;20039;-65
2022/12/14 01:31:19;;;;;;;21.45;11.00;;;;;;;-3.25;100.00;100380.16;5058503;28;20020;-65
2022/12/14 01:33:46;;;;;;;20.35;9.18;;;;;;;-3.24;100.00;100376.81;5048167;28;20025;-65
2022/12/14 01:36:14;;;;;;;21.40;10.13;;;;;;;-3.26;100.00;100375.81;5050698;28;20041;-65
2022/12/14 01:38:40;;;;;;;25.45;10.77;;;;;;;-3.28;100.00;100373.13;5042012;28;20431;-66
2022/12/14 01:41:07;;;;;;;26.80;10.23;;;;;;;-3.28;100.00;100382.56;5059769;28;20039;-65
2022/12/14 01:43:54;;;;;;;21.23;9.95;;;;;;;-3.31;100.00;100384.91;5062713;28;20507;-65
2022/12/14 01:46:40;;;;;;;26.27;11.00;;;;;;;-3.35;100.00;100378.69;5035026;28;20111;-65
2022/12/14 01:49:05;;;;;;;19.38;10.27;;;;;;;-3.36;100.00;100375.97;5049216;28;20025;-65
2022/12/14 01:51:32;;;;;;;21.13;10.98;;;;;;;-3.42;100.00;100369.69;5041653;28;20021;-65
2022/12/14 01:53:59;;;;;;;19.17;9.48;;;;;;;-3.40;100.00;100370.66;5051559;28;20240;-65
2022/12/14 01:56:24;;;;;;;27.13;11.82;;;;;;;-3.44;100.00;100365.22;5043911;28;20543;-65
2022/12/14 01:58:50;;;;;;;23.17;9.98;;;;;;;-3.47;100.00;100371.06;5047950;28;20041;-65
2022/12/14 02:01:15;;;;;;;30.48;10.43;;;;;;;-3.49;100.00;100377.75;5048750;28;20033;-65
2022/12/14 02:03:49;;;;;;;21.23;11.05;;;;;;;-3.52;100.00;100375.00;5058891;28;20029;-67
2022/12/14 02:06:18;;;;;;;;;;;;;;;-3.52;100.00;100368.97;5050736;28;20074;-65
2022/12/14 02:08:46;;;;;;;25.42;9.90;;;;;;;-3.51;100.00;100370.75;5039656;28;19921;-65
2022/12/14 02:11:11;;;;;;;24.35;11.63;;;;;;;-3.59;100.00;100365.13;5047011;28;20442;-65
2022/12/14 02:13:40;;;;;;;22.73;10.70;;;;;;;-3.63;100.00;100361.44;5055841;28;20140;-65
2022/12/14 02:16:06;;;;;;;22.25;10.75;;;;;;;-3.63;100.00;100365.72;5044260;28;20537;-66
2022/12/14 02:18:32;;;;;;;25.50;10.27;;;;;;;-3.66;100.00;100356.09;5041180;28;20488;-65
2022/12/14 02:21:20;;;;;;;20.40;9.88;;;;;;;-3.65;100.00;100359.56;5040577;28;20032;-66
2022/12/14 02:23:45;;;;;;;25.67;10.40;;;;;;;-3.72;100.00;100355.69;5035531;28;20026;-65
2022/12/14 02:26:42;;;;;;;23.98;10.98;;;;;;;-3.76;100.00;100362.34;5044637;28;20040;-66
2022/12/14 02:29:32;;;;;;;26.67;10.68;;;;;;;-3.80;100.00;100365.50;5041853;28;20041;-65
2022/12/14 02:32:22;;;;;;;17.05;9.68;;;;;;;-3.84;100.00;100357.47;5052788;28;20056;-66
2022/12/14 02:34:48;;;;;;;18.65;10.15;;;;;;;-3.90;100.00;100352.81;5042634;28;20051;-64
2022/12/14 02:37:39;;;;;;;19.63;10.82;;;;;;;-3.88;100.00;100363.19;5035476;28;20389;-65
2022/12/14 02:40:20;;;;;;;23.55;11.45;;;;;;;-3.94;100.00;100355.97;5042692;28;20045;-65
2022/12/14 02:43:04;;;;;;;23.48;11.20;;;;;;;-4.00;100.00;100358.13;5037907;28;20033;-66
2022/12/14 02:45:29;;;;;;;;;;;;;;;-4.06;100.00;100358.59;5048960;28;20405;-65
2022/12/14 02:48:01;;;;;;;26.87;10.47;;;;;;;-4.10;100.00;100357.50;5051474;28;19916;-66
2022/12/14 02:50:46;;;;;;;21.83;10.35;;;;;;;-4.12;100.00;100353.94;5053029;28;20291;-66
2022/12/14 02:53:23;;;;;;;17.38;9.70;;;;;;;-4.09;100.00;100354.16;5050408;28;20032;-65
2022/12/14 02:55:51;;;;;;;26.55;11.00;;;;;;;-4.13;100.00;100351.28;5050020;28;20028;-64
2022/12/14 02:58:20;;;;;;;20.50;10.05;;;;;;;-4.13;100.00;100352.16;5054488;28;20195;-64
2022/12/14 03:00:46;;;;;;;24.23;10.50;;;;;;;-4.17;100.00;100347.59;5046793;28;20082;-65
2022/12/14 03:03:12;;;;;;;23.52;11.57;;;;;;;-4.14;100.00;100341.78;5055850;28;20024;-66
2022/12/14 03:05:37;;;;;;;20.52;10.57;;;;;;;-4.17;100.00;100341.59;5045625;28;20044;-66
2022/12/14 03:08:07;;;;;;;25.20;12.02;;;;;;;-4.14;100.00;100344.34;5043059;28;20029;-65
2022/12/14 03:10:54;;;;;;;26.58;12.38;;;;;;;-4.14;100.00;100342.66;5037347;28;20025;-65
2022/12/14 03:13:34;;;;;;;19.83;10.90;;;;;;;-4.11;100.00;100331.69;5047912;28;20064;-65
2022/12/14 03:16:20;;;;;;;25.27;10.55;;;;;;;-4.10;100.00;100333.50;5051117;28;20396;-64
2022/12/14 03:18:55;;;;;;;22.33;12.00;;;;;;;-4.09;100.00;100333.59;5043782;28;20021;-65
2022/12/14 03:21:26;;;;;;;25.20;10.23;;;;;;;-4.12;100.00;100328.25;5047069;28;20032;-66
2022/12/14 03:23:54;;;;;;;27.25;12.25;;;;;;;-4.11;100.00;100319.75;5063612;28;20081;-65
2022/12/14 03:26:53;;;;;;;26.20;11.02;;;;;;;-4.14;100.00;100314.41;5047038;28;20108;-64
2022/12/14 03:29:32;;;;;;;23.75;11.85;;;;;;;-4.14;100.00;100311.81;5039458;28;20401;-66
2022/12/14 03:32:06;;;;;;;27.02;11.23;;;;;;;-4.18;100.00;100312.41;5049511;28;20079;-64
2022/12/14 03:34:36;;;;;;;26.45;12.40;;;;;;;-4.18;100.00;100307.28;5049845;28;20111;-65
2022/12/14 03:37:20;;;;;;;27.65;12.25;;;;;;;-4.15;100.00;100301.44;5053583;28;20051;-66
2022/12/14 03:39:46;;;;;;;19.17;11.15;;;;;;;-4.15;100.00;100304.03;5052828;28;20033;-65
2022/12/14 03:42:39;;;;;;;23.80;12.25;;;;;;;-4.17;100.00;100296.22;5051491;28;20032;-65
2022/12/14 03:45:27;;;;;;;28.20;12.88;;;;;;;-4.19;100.00;100294.34;5041844;28;20036;-65
2022/12/14 03:48:06;;;;;;;27.95;11.43;;;;;;;-4.22;100.00;100289.00;5052099;28;21342;-64
2022/12/14 03:50:47;;;;;;;17.10;10.52;;;;;;;-4.25;100.00;100295.69;5052111;28;20487;-64
2022/12/14 03:53:35;;;;;;;25.58;11.80;;;;;;;-4.25;100.00;100290.56;5051972;28;20432;-63
2022/12/14 03:56:11;;;;;;;25.17;10.82;;;;;;;-4.26;100.00;100288.81;5047533;28;20032;-65
2022/12/14 03:58:41;;;;;;;21.02;11.15;;;;;;;-4.28;100.00;100287.78;5057779;28;20049;-64
2022/12/14 04:01:34;;;;;;;24.58;11.43;;;;;;;-4.33;100.00;100288.28;5043638;28;20044;-66
2022/12/14 04:04:26;;;;;;;24.77;11.82;;;;;;;-4.35;100.00;100283.06;5046414;28;20094;-65
2022/12/14 04:07:00;;;;;;;27.27;11.60;;;;;;;-4.37;100.00;100279.47;5065618;28;20056;-65
2022/12/14 04:09:44;;;;;;;29.83;12.57;;;;;;;-4.33;100.00;100280.56;5056258;28;20029;-65
2022/12/14 04:21:25;;;;;;;24.30;12.50;;;;;;;-4.36;100.00;100265.84;5051328;28;20036;-64
2022/12/14 04:26:50;;;;;;;26.98;11.70;;;;;;;-4.36;100.00;100259.84;5050276;28;20110;-65
2022/12/14 04:32:15;;;;;;;25.83;11.55;;;;;;;-4.37;100.00;100258.06;5045948;28;20051;-65
2022/12/14 04:34:44;;;;;;;27.58;12.50;;;;;;;-4.41;100.00;100256.94;5039607;28;20025;-65
2022/12/14 04:37:15;;;;;;;27.80;12.10;;;;;;;-4.41;100.00;100256.94;5051936;28;20049;-66
2022/12/14 04:39:55;;;;;;;25.45;11.60;;;;;;;-4.42;100.00;100250.06;5054466;28;20107;-65
2022/12/14 04:42:27;;;;;;;22.70;12.20;;;;;;;-4.46;100.00;100254.09;5051545;28;20028;-65
2022/12/14 04:44:58;;;;;;;28.58;11.88;;;;;;;-4.46;100.00;100251.50;5044762;28;20044;-66
2022/12/14 04:47:37;;;;;;;26.23;11.80;;;;;;;-4.46;100.00;100248.94;5044951;28;20120;-65
2022/12/14 04:50:28;;;;;;;23.77;11.88;;;;;;;-4.45;100.00;100250.72;5044917;28;20026;-66
2022/12/14 04:53:01;;;;;;;25.67;11.07;;;;;;;-4.42;100.00;100250.06;5054060;28;20040;-65
2022/12/14 04:55:31;;;;;;;27.48;13.43;;;;;;;-4.42;100.00;100253.50;5049725;28;20032;-65
2022/12/14 04:58:00;;;;;;;24.50;12.15;;;;;;;-4.47;100.00;100252.28;5054398;28;20424;-64
2022/12/14 05:00:28;;;;;;;24.13;11.88;;;;;;;-4.46;100.00;100246.38;5049842;28;20090;-65
2022/12/14 05:02:57;;;;;;;30.52;14.23;;;;;;;-4.50;100.00;100244.41;5050933;28;20021;-64
2022/12/14 05:05:31;;;;;;;25.40;12.18;;;;;;;-4.55;100.00;100242.31;5050701;28;20435;-63
2022/12/14 05:08:05;;;;;;;23.63;11.55;;;;;;;-4.56;100.00;100241.41;5060923;28;20032;-65
2022/12/14 05:10:43;;;;;;;24.38;10.50;;;;;;;-4.61;100.00;100250.50;5052862;28;20036;-67
2022/12/14 05:13:21;;;;;;;21.40;10.98;;;;;;;-4.66;100.00;100239.91;5057749;28;20112;-64
2022/12/14 05:15:52;;;;;;;25.73;12.45;;;;;;;-4.68;100.00;100243.16;5044180;28;20388;-64
2022/12/14 05:18:18;;;;;;;20.63;10.50;;;;;;;-4.70;100.00;100247.31;5057305;28;20020;-64
2022/12/14 05:20:45;;;;;;;27.92;11.95;;;;;;;-4.67;100.00;100240.69;5052466;28;20029;-66
2022/12/14 05:23:11;;;;;;;21.13;11.50;;;;;;;-4.75;100.00;100237.63;5054843;28;20499;-66
2022/12/14 05:25:36;;;;;;;25.40;12.20;;;;;;;-4.74;100.00;100230.78;5051501;28;20033;-65
2022/12/14 05:28:02;;;;;;;24.02;11.20;;;;;;;-4.83;100.00;100233.66;5055418;28;20071;-67
2022/12/14 05:30:27;;;;;;;25.08;10.95;;;;;;;-4.88;100.00;100231.53;5047675;28;20017;-65
2022/12/14 05:32:53;;;;;;;25.48;11.90;;;;;;;-4.92;100.00;100231.31;5047317;28;20044;-65
2022/12/14 05:35:18;;;;;;;31.25;11.45;;;;;;;-4.96;100.00;100231.03;5050901;28;20029;-64
2022/12/14 05:37:44;;;;;;;22.58;11.13;;;;;;;-5.01;100.00;100232.38;5044219;28;20500;-65
2022/12/14 05:40:10;;;;;;;24.80;11.20;;;;;;;-4.99;100.00;100236.84;5037586;28;20030;-65
2022/12/14 05:42:35;;;;;;;28.92;11.52;;;;;;;-4.97;100.00;100239.50;5047356;28;20045;-64
2022/12/14 05:45:01;;;;;;;22.50;10.23;;;;;;;-4.96;100.00;100229.34;5035900;28;20073;-65
2022/12/14 05:47:26;;;;;;;23.30;11.10;;;;;;;-5.02;100.00;100215.19;5039410;28;20516;-65
2022/12/14 05:49:51;;;;;;;29.83;11.65;;;;;;;-5.04;100.00;100227.03;5043580;28;20493;-65
2022/12/14 05:52:17;;;;;;;22.25;10.60;;;;;;;-5.02;100.00;100212.63;5041343;28;20115;-65
2022/12/14 05:54:42;;;;;;;23.10;10.52;;;;;;;-5.08;100.00;100224.25;5049004;28;20464;-64
2022/12/14 05:57:08;;;;;;;18.02;10.80;;;;;;;-5.15;100.00;100221.19;5039289;28;20020;-64
2022/12/14 05:59:33;;;;;;;25.52;10.75;;;;;;;-5.26;100.00;100218.75;5051505;28;20037;-65
2022/12/14 06:01:58;;;;;;;23.65;10.02;;;;;;;-5.36;100.00;100218.88;5045525;28;20025;-66
2022/12/14 06:04:24;;;;;;;23.05;11.27;;;;;;;-5.40;100.00;100221.13;5042444;28;20021;-64
2022/12/14 06:06:50;;;;;;;22.90;11.80;;;;;;;-5.45;100.00;100221.69;5048537;28;20040;-64
2022/12/14 06:09:16;;;;;;;32.72;12.45;;;;;;;-5.35;100.00;100222.34;5044588;28;20036;-64
2022/12/14 06:11:43;;;;;;;21.05;10.48;;;;;;;-5.32;100.00;100220.00;5051447;28;20051;-64
2022/12/14 06:14:10;;;;;;;19.02;10.15;;;;;;;-5.38;100.00;100217.91;5043595;28;20500;-63
2022/12/14 06:16:38;;;;;;;23.20;11.95;;;;;;;-5.40;100.00;100216.88;5061425;28;20028;-64
2022/12/14 06:19:04;;;;;;;23.83;10.95;;;;;;;-5.35;100.00;100218.09;5050205;28;20028;-63
2022/12/14 06:21:33;;;;;;;22.25;10.57;;;;;;;-5.36;100.00;100215.44;5048039;28;20068;-63
2022/12/14 06:23:59;;;;;;;24.85;11.05;;;;;;;-5.35;100.00;100218.09;5046273;28;20096;-64
2022/12/14 06:26:25;;;;;;;19.10;10.55;;;;;;;-5.33;100.00;100210.50;5045392;28;20111;-64
2022/12/14 06:28:51;;;;;;;24.65;11.50;;;;;;;-5.34;100.00;100206.19;5049795;28;20029;-65
2022/12/14 06:31:28;;;;;;;22.00;11.27;;;;;;;-5.28;100.00;100214.28;5046186;28;20043;-65
2022/12/14 06:33:54;;;;;;;22.30;10.93;;;;;;;-5.29;100.00;100212.50;5046522;28;20075;-65
2022/12/14 06:36:22;;;;;;;26.77;11.10;;;;;;;-5.34;100.00;100211.31;5049141;28;20461;-66
2022/12/14 06:38:49;;;;;;;24.27;11.88;;;;;;;-5.33;100.00;100215.63;5041920;28;20087;-64
2022/12/14 06:41:14;;;;;;;25.67;10.85;;;;;;;-5.33;100.00;100215.63;5059646;28;20468;-67
2022/12/14 06:43:40;;;;;;;26.77;11.93;;;;;;;-5.35;100.00;100218.09;5043561;28;20027;-65
2022/12/14 06:46:07;;;;;;;20.83;11.25;;;;;;;-5.38;100.00;100215.31;5039018;28;20124;-66
2022/12/14 06:48:32;;;;;;;28.35;12.05;;;;;;;-5.35;100.00;100212.09;5036901;28;20099;-66
2022/12/14 06:51:02;;;;;;;25.33;10.75;;;;;;;-5.32;100.00;100212.28;5054414;28;20025;-65
2022/12/14 06:53:27;;;;;;;25.67;11.02;;;;;;;-5.38;100.00;100205.06;5050413;28;20036;-65
2022/12/14 06:55:53;;;;;;;26.85;10.80;;;;;;;-5.34;100.00;100209.63;5050889;28;20043;-66
2022/12/14 06:58:18;;;;;;;18.50;9.95;;;;;;;-5.35;100.00;100212.09;5049102;28;20120;-67
2022/12/14 07:00:44;;;;;;;24.38;11.18;;;;;;;-5.38;100.00;100211.88;5047250;28;20015;-64
2022/12/14 07:03:09;;;;;;;23.25;10.55;;;;;;;-5.45;100.00;100216.56;5048580;28;20029;-64
2022/12/14 07:05:35;;;;;;;20.75;10.25;;;;;;;-5.45;100.00;100224.25;5044555;28;20626;-65
2022/12/14 07:08:01;;;;;;;23.33;10.60;;;;;;;-5.48;100.00;100225.72;5052374;28;20372;-64
2022/12/14 07:10:27;;;;;;;20.67;8.65;;;;;;;-5.48;100.00;100226.63;5048194;28;20108;-64
2022/12/14 07:12:52;;;;;;;18.58;9.95;;;;;;;-5.50;100.00;100229.84;5053392;28;20028;-64
2022/12/14 07:15:17;;;;;;;20.95;9.32;;;;;;;-5.53;100.00;100229.66;5054732;28;20116;-66
2022/12/14 07:17:43;;;;;;;20.55;8.75;;;;;;;-5.54;100.00;100230.41;5056213;28;20122;-66
2022/12/14 07:20:08;;;;;;;24.00;10.30;;;;;;;-5.63;100.00;100222.94;5054496;28;20031;-65
2022/12/14 07:22:34;;;;;;;20.15;10.07;;;;;;;-5.69;100.00;100225.09;5056953;28;20032;-64
2022/12/14 07:25:00;;;;;;;18.70;9.48;;;;;;;-5.71;100.00;100218.97;5054241;28;20033;-64
2022/12/14 07:27:26;;;;;;;21.15;9.38;;;;;;;-5.73;100.00;100228.22;5054043;28;20024;-66
2022/12/14 07:29:52;;;;;;;18.98;9.45;;;;;;;-5.80;100.00;100225.22;5052761;28;20072;-66
2022/12/14 07:32:17;;;;;;;16.75;9.05;;;;;;;-5.84;100.00;100232.59;5052433;28;20064;-66
2022/12/14 07:34:42;;;;;;;17.80;9.18;;;;;;;-5.81;100.00;100231.09;5051700;28;20539;-65
2022/12/14 07:37:08;;;;;;;22.45;9.98;;;;;;;-5.85;100.00;100239.34;5052500;28;20104;-64
2022/12/14 07:39:33;;;;;;;19.40;9.40;;;;;;;-5.87;100.00;100235.81;5056497;28;20055;-65
2022/12/14 07:41:58;;;;;;;14.40;8.57;;;;;;;-5.87;100.00;100245.16;5053684;28;20369;-64
2022/12/14 07:44:24;;;;;;;24.63;9.77;;;;;;;-5.91;100.00;100241.50;5051200;28;20517;-65
2022/12/14 07:46:49;;;;;;;22.27;10.88;;;;;;;-5.83;100.00;100242.03;5061071;28;20387;-64
2022/12/14 07:49:15;;;;;;;20.15;9.85;;;;;;;-5.89;100.00;100247.59;5069727;28;20383;-64
2022/12/14 07:51:41;;;;;;;22.52;10.25;;;;;;;-5.92;100.00;100248.28;5040683;28;20498;-65
2022/12/14 07:54:07;;;;;;;18.25;9.63;;;;;;;-5.95;100.00;100244.63;5053724;28;20393;-66
2022/12/14 07:56:35;;;;;;;20.50;10.95;;;;;;;-5.96;100.00;100250.50;5063699;28;20025;-65
2022/12/14 07:59:02;;;;;;;19.67;10.38;;;;;;;-5.94;100.00;100251.50;5043404;28;20402;-65
2022/12/14 08:01:33;;;;;;;19.75;9.52;;;;;;;-5.87;100.00;100247.72;5035825;28;20447;-65
2022/12/14 08:04:02;;;;;;;19.38;10.10;;;;;;;-5.82;100.00;100244.72;5050863;28;20029;-65
2022/12/14 08:06:29;;;;;;;20.08;9.52;;;;;;;-5.85;100.00;100254.72;5057151;28;20064;-65
2022/12/14 08:08:55;;;;;;;22.10;11.18;;;;;;;-5.79;100.00;100251.75;5043276;28;20034;-65
2022/12/14 08:11:21;;;;;;;23.60;10.45;;;;;;;-5.85;100.00;100252.16;5045777;28;20025;-65
2022/12/14 08:14:04;;;;;;;23.17;9.65;;;;;;;-5.88;100.00;100245.94;5046862;28;20094;-65
2022/12/14 08:16:30;;;;;;;21.25;9.68;;;;;;;-5.90;100.00;100248.41;5042192;28;20032;-65
2022/12/14 08:18:57;;;;;;;24.90;10.02;;;;;;;-5.84;100.00;100245.38;5046117;28;20076;-64
2022/12/14 08:21:23;;;;;;;17.77;9.85;;;;;;;-5.81;100.00;100245.59;5045905;28;20033;-65
2022/12/14 08:23:50;;;;;;;20.80;9.77;;;;;;;-5.72;100.00;100253.03;5048249;28;20099;-66
2022/12/14 08:26:16;;;;;;;19.48;9.60;;;;;;;-5.80;100.00;100253.41;5047429;28;20029;-65
2022/12/14 08:28:41;;;;;;;21.25;9.10;;;;;;;-5.69;100.00;100256.72;5048363;28;20555;-64
2022/12/14 08:31:12;;;;;;;20.60;10.02;;;;;;;-5.72;100.00;100255.59;5051115;28;20104;-66
2022/12/14 08:33:38;;;;;;;16.05;8.93;;;;;;;-5.68;100.00;100261.09;5051604;28;20102;-65
2022/12/14 08:36:10;;;;;;;23.38;10.93;;;;;;;-5.67;100.00;100251.72;5047604;28;20044;-66
2022/12/14 08:38:35;;;;;;;27.50;10.35;;;;;;;-5.68;100.00;100262.72;5044338;28;20578;-65
2022/12/14 08:41:13;;;;;;;24.88;10.98;;;;;;;-5.66;100.00;100249.25;5048925;28;20025;-66
2022/12/14 08:43:39;;;;;;;25.30;10.93;;;;;;;-5.58;100.00;100265.19;5048714;28;20064;-65
2022/12/14 08:46:05;;;;;;;23.00;10.38;;;;;;;-5.49;100.00;100263.28;5050473;28;20040;-67
2022/12/14 08:48:30;;;;;;;18.52;9.70;;;;;;;-5.51;100.00;100267.41;5041246;28;20017;-65
2022/12/14 08:51:07;;;;;;;17.15;9.32;;;;;;;-5.53;100.00;100268.97;5045183;28;20075;-65
2022/12/14 08:53:34;;;;;;;20.90;9.40;;;;;;;-5.44;100.00;100267.06;5047092;28;20539;-66
2022/12/14 08:56:05;;;;;;;20.17;9.73;;;;;;;-5.49;100.00;100262.41;5048131;28;20029;-65
2022/12/14 08:58:30;;;;;;;19.13;9.98;;;;;;;-5.49;100.00;100270.97;5014579;28;1073489;-67
2022/12/14 09:01:16;;;;;;;20.85;10.48;;;;;;;-5.45;100.00;100267.84;5051993;28;20171;-65
2022/12/14 09:03:45;;;;;;;27.15;10.15;;;;;;;-5.45;100.00;100272.97;5041928;28;20032;-65
2022/12/14 09:06:21;;;;;;;23.85;10.57;;;;;;;-5.44;100.00;100276.41;5046322;28;20044;-65
2022/12/14 09:08:47;;;;;;;18.70;9.75;;;;;;;-5.39;100.00;100271.63;5046992;28;20366;-65
2022/12/14 09:11:14;;;;;;;23.23;10.05;;;;;;;-5.35;100.00;100273.63;5041861;28;20036;-65
2022/12/14 09:13:41;;;;;;;21.25;10.25;;;;;;;-5.28;100.00;100276.75;5045515;28;20139;-65
2022/12/14 09:16:10;;;;;;;28.58;11.23;;;;;;;-5.24;100.00;100282.97;5041117;28;20149;-65
2022/12/14 09:18:36;;;;;;;19.38;10.18;;;;;;;-5.19;100.00;100281.63;5041159;28;20417;-65
2022/12/14 09:21:01;;;;;;;20.42;9.52;;;;;;;-5.16;100.00;100286.94;5057621;28;20029;-65
2022/12/14 09:23:28;;;;;;;22.05;11.10;;;;;;;-5.09;100.00;100278.00;5037227;28;20628;-66
2022/12/14 09:26:18;;;;;;;19.30;10.20;;;;;;;-5.01;100.00;100274.31;5051025;28;20690;-65
2022/12/14 09:28:53;;;;;;;19.73;9.77;;;;;;;-4.94;100.00;100285.88;5049589;28;20037;-66
2022/12/14 09:31:21;;;;;;;19.42;11.05;;;;;;;-4.85;100.00;100283.97;5045796;28;20017;-65
2022/12/14 09:33:47;;;;;;;20.73;10.15;;;;;;;-4.75;100.00;100285.47;5046968;28;20055;-64
2022/12/14 09:36:15;;;;;;;21.20;9.80;;;;;;;-4.61;100.00;100277.03;5065518;28;20029;-65
2022/12/14 09:38:42;;;;;;;21.73;11.00;;;;;;;-4.45;100.00;100276.41;5048493;28;20029;-66
2022/12/14 09:41:29;;;;;;;19.75;11.15;;;;;;;-4.15;100.00;100281.81;5060810;28;20025;-66
2022/12/14 09:44:24;;;;;;;19.48;10.55;;;;;;;-3.71;100.00;100282.03;5050512;28;20040;-65
2022/12/14 09:47:01;;;;;;;19.98;10.27;;;;;;;-3.28;100.00;100288.22;5052129;28;20048;-65
2022/12/14 09:49:33;;;;;;;18.55;9.30;;;;;;;-2.95;100.00;100282.50;5067483;28;20025;-65
2022/12/14 09:52:03;;;;;;;19.52;8.90;;;;;;;-2.66;100.00;100292.00;5052092;28;20025;-65
2022/12/14 09:54:32;;;;;;;22.15;10.00;;;;;;;-2.60;100.00;100288.94;5054546;28;20025;-65
2022/12/14 09:57:03;;;;;;;18.75;9.77;;;;;;;-2.42;100.00;100292.59;5042842;28;20035;-66
2022/12/14 09:59:30;;;;;;;19.80;9.13;;;;;;;-2.25;100.00;100290.09;5050083;28;20076;-66
2022/12/14 10:02:21;;;;;;;17.08;8.93;;;;;;;-2.14;100.00;100285.59;5040230;28;20038;-67
2022/12/14 10:05:15;;;;;;;26.50;9.23;;;;;;;-1.89;100.00;100290.47;5047138;28;20051;-67
2022/12/14 10:08:03;;;;;;;19.00;9.63;;;;;;;-1.57;100.00;100294.91;5039197;28;20393;-66
2022/12/14 10:11:09;;;;;;;20.88;8.77;;;;;;;-1.26;100.00;100296.59;5048440;28;20025;-66
2022/12/14 10:13:43;;;;;;;21.20;10.10;;;;;;;-0.96;100.00;100293.00;4977760;28;20038;-66
2022/12/14 10:16:23;;;;;;;18.83;9.20;;;;;;;-0.69;100.00;100289.31;5036249;28;20056;-67
2022/12/14 10:19:04;;;;;;;16.45;9.30;;;;;;;-0.75;100.00;100285.53;5049414;28;20112;-67
2022/12/14 10:21:48;;;;;;;16.80;9.05;;;;;;;-0.26;100.00;100287.19;5032460;28;20140;-65
2022/12/14 10:24:22;;;;;;;21.40;10.00;;;;;;;-0.36;100.00;100286.72;5042593;28;20033;-67
2022/12/14 10:26:54;;;;;;;18.33;8.73;;;;;;;0.04;100.00;100284.38;5043099;28;20048;-67
2022/12/14 10:29:36;;;;;;;17.80;9.65;;;;;;;0.02;100.00;100283.41;5035819;28;20029;-68
2022/12/14 10:32:04;;;;;;;19.75;9.10;;;;;;;0.04;100.00;100284.38;5061345;28;20052;-67
2022/12/14 10:34:31;;;;;;;16.80;9.15;;;;;;;0.04;100.00;100276.59;5062375;28;20366;-67
2022/12/14 10:37:36;;;;;;;16.73;10.18;;;;;;;0.00;100.00;100273.00;5032116;28;20473;-67
2022/12/14 10:40:14;;;;;;;22.65;10.65;;;;;;;0.70;100.00;100266.84;5037126;28;20024;-68
2022/12/14 10:43:16;;;;;;;19.27;10.55;;;;;;;0.81;100.00;100273.44;5049438;28;20021;-68
2022/12/14 10:46:00;;;;;;;17.92;9.35;;;;;;;0.95;96.80;100284.44;5049697;28;20036;-67
2022/12/14 10:48:47;;;;;;;15.60;9.20;;;;;;;1.35;94.17;100270.66;5043685;28;20064;-66
2022/12/14 10:51:29;;;;;;;13.57;8.38;;;;;;;1.68;89.95;100265.19;5052448;28;20438;-66
2022/12/14 10:54:10;;;;;;;15.75;9.60;;;;;;;2.10;92.41;100277.31;5050611;28;20039;-68
2022/12/14 10:56:39;;;;;;;15.20;8.40;;;;;;;2.49;85.54;100273.69;5049473;28;20461;-67
2022/12/14 10:59:17;;;;;;;14.85;8.73;;;;;;;2.58;78.25;100265.34;5033494;28;20490;-67
2022/12/14 11:01:44;;;;;;;14.98;9.20;;;;;;;2.42;77.83;100264.75;5033643;28;20029;-68
2022/12/14 11:04:32;;;;;;;16.33;8.68;;;;;;;2.58;76.12;100266.25;5041993;28;20024;-66
2022/12/14 11:07:00;;;;;;;15.57;9.55;;;;;;;2.58;81.40;100263.66;5049762;28;20025;-66
2022/12/14 11:09:25;;;;;;;13.85;8.75;;;;;;;2.35;77.89;100260.16;5040138;28;20417;-67
2022/12/14 11:12:00;;;;;;;17.17;8.85;;;;;;;2.39;79.64;100271.53;5050504;28;20090;-71
2022/12/14 11:14:26;;;;;;;15.93;9.52;;;;;;;2.19;82.63;100269.03;5050102;28;20029;-68
2022/12/14 11:16:52;;;;;;;14.35;9.30;;;;;;;1.84;79.99;100271.91;5049801;28;20108;-67
2022/12/14 11:19:20;;;;;;;15.70;8.50;;;;;;;1.98;86.80;100267.31;5033512;28;20025;-68
2022/12/14 11:21:46;;;;;;;18.27;9.82;;;;;;;2.48;81.23;100277.09;5051079;28;20035;-68
2022/12/14 11:24:26;;;;;;;16.02;8.80;;;;;;;2.51;84.70;100274.66;5049843;28;20051;-68
2022/12/14 11:27:02;;;;;;;14.10;8.27;;;;;;;2.69;77.24;100274.47;5050403;28;20583;-68
2022/12/14 11:29:34;;;;;;;18.20;9.20;;;;;;;2.90;73.26;100271.81;5049823;28;20024;-67
2022/12/14 11:31:59;;;;;;;14.50;8.63;;;;;;;2.60;72.97;100267.19;5045117;28;20021;-67
2022/12/14 11:34:28;;;;;;;13.13;7.75;;;;;;;2.78;76.82;100268.75;5041545;28;20148;-67
2022/12/14 11:36:53;;;;;;;14.57;8.90;;;;;;;2.86;73.72;100272.50;5050544;28;20033;-68
2022/12/14 11:39:18;;;;;;;22.67;10.95;;;;;;;3.12;76.96;100281.31;5049493;28;20032;-68